Time;durP1;ratioP1;P1;durP2;ratioP2;P2;SDS_P1;SDS_P2;PMS_P1;PMS_P2;Temp;Humidity;BMP_temperature;BMP_pressure;BME280_temperature;BME280_humidity;BME280_pressure;Samples;Min_cycle;Max_cycle;Signal;HPM_P1;HPM_P2
2021/12/28 00:01:40;;;;;;;29.48;17.98;;;21.50;34.50;;;;;;6158135;28;83591;-72
2021/12/28 00:04:41;;;;;;;32.97;19.80;;;21.50;34.20;;;;;;6155016;28;83109;-74
2021/12/28 00:07:41;;;;;;;33.33;19.85;;;21.50;34.60;;;;;;6158106;28;83129;-73
2021/12/28 00:10:42;;;;;;;33.38;20.48;;;21.50;34.50;;;;;;6156760;28;84121;-72
2021/12/28 00:13:44;;;;;;;34.50;20.33;;;21.50;34.70;;;;;;6167589;28;84115;-70
2021/12/28 00:20:03;;;;;;;32.55;20.50;;;21.50;34.30;;;;;;6168995;28;82944;-72
2021/12/28 00:23:04;;;;;;;32.30;19.20;;;21.50;34.60;;;;;;6157021;28;83772;-71
2021/12/28 00:26:04;;;;;;;33.45;19.77;;;21.50;34.50;;;;;;6160320;28;84071;-71
2021/12/28 00:29:05;;;;;;;34.75;20.83;;;21.40;34.30;;;;;;6170925;28;83238;-72
2021/12/28 00:32:07;;;;;;;33.10;20.08;;;21.50;34.10;;;;;;6149393;28;85248;-72
2021/12/28 00:35:08;;;;;;;33.28;20.27;;;21.40;34.50;;;;;;6154732;28;84199;-72
2021/12/28 00:38:08;;;;;;;34.92;20.38;;;21.40;34.30;;;;;;6156526;28;82856;-72
2021/12/28 00:41:09;;;;;;;33.55;19.55;;;21.40;33.80;;;;;;6159218;28;83205;-72
2021/12/28 00:44:09;;;;;;;33.83;20.83;;;21.40;34.30;;;;;;6156291;28;84269;-72
2021/12/28 00:47:10;;;;;;;30.65;19.40;;;21.40;35.10;;;;;;6165354;28;84328;-72
2021/12/28 00:50:10;;;;;;;29.98;18.42;;;21.40;34.40;;;;;;6155384;28;83144;-72
2021/12/28 00:53:11;;;;;;;32.00;19.50;;;21.40;34.70;;;;;;6171371;28;83580;-72
2021/12/28 00:56:12;;;;;;;31.83;20.05;;;21.40;34.30;;;;;;6155960;28;86266;-72
2021/12/28 00:59:12;;;;;;;31.65;19.30;;;21.40;34.40;;;;;;6172337;28;86568;-72
2021/12/28 01:02:13;;;;;;;34.28;19.92;;;21.40;34.90;;;;;;6175010;27;83231;-72
2021/12/28 01:05:13;;;;;;;30.67;19.20;;;21.40;34.60;;;;;;6157217;28;82992;-72
2021/12/28 01:08:14;;;;;;;34.58;19.60;;;21.40;34.50;;;;;;6173814;27;83962;-72
2021/12/28 01:11:14;;;;;;;30.30;18.92;;;21.40;35.40;;;;;;6157140;28;83380;-72
2021/12/28 01:14:15;;;;;;;29.17;17.73;;;21.40;35.20;;;;;;6169647;27;83369;-72
2021/12/28 01:17:15;;;;;;;34.45;19.77;;;21.40;34.60;;;;;;6152966;28;84454;-71
2021/12/28 01:20:16;;;;;;;30.75;18.52;;;21.40;34.60;;;;;;6171001;28;84265;-71
2021/12/28 01:23:16;;;;;;;30.98;19.27;;;21.40;34.70;;;;;;6155271;28;83079;-71
2021/12/28 01:26:17;;;;;;;28.77;18.88;;;21.40;34.80;;;;;;6162895;28;85537;-71
2021/12/28 01:29:17;;;;;;;28.92;18.55;;;21.40;35.50;;;;;;6154888;28;82986;-71
2021/12/28 01:32:18;;;;;;;30.00;18.40;;;21.40;35.00;;;;;;6156990;28;84170;-71
2021/12/28 01:35:18;;;;;;;31.80;19.05;;;21.40;34.80;;;;;;6171557;28;83356;-72
2021/12/28 01:38:19;;;;;;;28.88;18.33;;;21.40;35.60;;;;;;6138012;28;85115;-71
2021/12/28 01:41:19;;;;;;;31.80;18.80;;;21.30;35.00;;;;;;6156206;28;84251;-71
2021/12/28 01:44:20;;;;;;;32.47;19.40;;;21.30;34.80;;;;;;6153600;28;82906;-71
2021/12/28 01:47:20;;;;;;;33.00;19.70;;;21.40;34.60;;;;;;6154506;28;83528;-72
2021/12/28 01:50:21;;;;;;;34.33;19.90;;;21.30;34.80;;;;;;6155021;28;83356;-71
2021/12/28 01:53:21;;;;;;;33.17;20.83;;;21.30;34.70;;;;;;6156379;28;84130;-71
2021/12/28 01:56:22;;;;;;;34.35;19.83;;;21.30;34.40;;;;;;6163621;28;84011;-71
2021/12/28 01:59:22;;;;;;;31.10;19.20;;;21.30;34.20;;;;;;6176405;27;84048;-71
2021/12/28 02:02:23;;;;;;;33.08;19.38;;;21.30;34.40;;;;;;6177021;27;83461;-72
2021/12/28 02:05:23;;;;;;;33.90;21.20;;;21.30;34.20;;;;;;6173788;27;83780;-71
2021/12/28 02:08:24;;;;;;;31.75;19.50;;;21.30;34.30;;;;;;6172894;27;82980;-72
2021/12/28 02:11:25;;;;;;;33.13;20.08;;;21.30;34.70;;;;;;6162263;28;89782;-71
2021/12/28 02:14:25;;;;;;;33.03;21.15;;;21.30;34.00;;;;;;6172931;27;83744;-72
2021/12/28 02:17:26;;;;;;;33.95;20.17;;;21.30;34.20;;;;;;6160024;28;83985;-72
2021/12/28 02:20:26;;;;;;;31.35;19.75;;;21.30;34.00;;;;;;6160350;28;83097;-72
2021/12/28 02:23:27;;;;;;;32.60;19.63;;;21.30;33.90;;;;;;6160608;28;83108;-71
2021/12/28 02:26:27;;;;;;;32.03;20.65;;;21.20;33.70;;;;;;6162631;28;83093;-72
2021/12/28 02:29:28;;;;;;;33.40;20.80;;;21.30;34.00;;;;;;6168331;27;83227;-72
2021/12/28 02:32:28;;;;;;;30.48;19.20;;;21.20;34.10;;;;;;6163684;28;83012;-72
2021/12/28 02:35:29;;;;;;;31.33;20.02;;;21.30;34.00;;;;;;6172699;28;84116;-72
2021/12/28 02:38:29;;;;;;;29.88;18.92;;;21.30;33.80;;;;;;6167773;28;84001;-72
2021/12/28 02:41:31;;;;;;;33.50;19.73;;;21.30;33.60;;;;;;6166305;27;83221;-71
2021/12/28 02:44:32;;;;;;;30.67;19.67;;;21.20;34.10;;;;;;6163527;28;83375;-71
2021/12/28 02:47:32;;;;;;;30.80;18.95;;;21.20;33.70;;;;;;6158955;28;83859;-71
2021/12/28 02:50:33;;;;;;;31.42;19.23;;;21.20;33.80;;;;;;6161314;28;85935;-71
2021/12/28 02:53:33;;;;;;;31.02;19.42;;;21.20;33.60;;;;;;6167358;28;82902;-71
2021/12/28 02:56:34;;;;;;;30.70;19.67;;;21.20;34.00;;;;;;6174752;27;83039;-71
2021/12/28 02:59:34;;;;;;;29.83;19.08;;;21.20;33.50;;;;;;6175595;27;83527;-71
2021/12/28 03:02:35;;;;;;;31.50;19.30;;;21.20;33.50;;;;;;6166593;28;89778;-71
2021/12/28 03:05:35;;;;;;;33.40;19.50;;;21.20;33.50;;;;;;6157890;28;83366;-72
2021/12/28 03:08:36;;;;;;;29.95;18.17;;;21.20;33.40;;;;;;6168189;28;83464;-71
2021/12/28 03:11:36;;;;;;;29.92;18.25;;;21.20;33.40;;;;;;6168196;27;84181;-74
2021/12/28 03:14:37;;;;;;;27.55;17.90;;;21.20;33.20;;;;;;6159323;28;83139;-74
2021/12/28 03:17:37;;;;;;;29.30;18.05;;;21.20;33.00;;;;;;6167988;28;83071;-74
2021/12/28 03:20:37;;;;;;;27.80;17.15;;;21.30;33.60;;;;;;6164822;27;83167;-73
2021/12/28 03:23:38;;;;;;;28.85;17.95;;;21.30;32.80;;;;;;6168184;28;83146;-74
2021/12/28 03:26:39;;;;;;;27.15;18.08;;;21.40;32.70;;;;;;6165011;27;83724;-74
2021/12/28 03:29:39;;;;;;;29.70;16.88;;;21.40;33.10;;;;;;6159524;28;83165;-73
2021/12/28 03:32:40;;;;;;;26.67;16.45;;;21.50;33.20;;;;;;6160935;28;88929;-73
2021/12/28 03:35:40;;;;;;;26.45;16.10;;;21.60;33.10;;;;;;6163416;28;83782;-73
2021/12/28 03:38:41;;;;;;;24.85;16.58;;;21.60;33.00;;;;;;6157013;28;83102;-72
2021/12/28 03:41:41;;;;;;;29.83;17.65;;;21.70;32.90;;;;;;6156895;28;83113;-73
2021/12/28 03:44:42;;;;;;;26.98;16.08;;;21.70;33.00;;;;;;6159778;28;83455;-73
2021/12/28 03:47:42;;;;;;;26.48;16.20;;;21.80;33.00;;;;;;6157680;28;83326;-73
2021/12/28 03:50:43;;;;;;;26.15;16.25;;;21.80;32.90;;;;;;6168435;28;85121;-73
2021/12/28 03:53:43;;;;;;;25.35;15.75;;;21.80;32.90;;;;;;6157573;28;83431;-73
2021/12/28 03:56:44;;;;;;;24.92;16.05;;;21.80;32.70;;;;;;6171766;28;82758;-73
2021/12/28 03:59:44;;;;;;;23.88;15.55;;;21.90;32.80;;;;;;6158887;27;84680;-73
2021/12/28 04:02:45;;;;;;;22.58;14.93;;;21.90;32.60;;;;;;6172707;28;83779;-75
2021/12/28 04:05:45;;;;;;;23.23;15.45;;;21.90;32.70;;;;;;6160741;27;83549;-74
2021/12/28 04:08:46;;;;;;;22.05;14.70;;;21.90;32.60;;;;;;6159681;28;83358;-74
2021/12/28 04:11:46;;;;;;;22.92;13.68;;;22.00;32.60;;;;;;6160265;28;83834;-74
2021/12/28 04:14:47;;;;;;;21.08;13.73;;;22.00;32.60;;;;;;6158571;28;83125;-73
2021/12/28 04:17:47;;;;;;;18.88;12.55;;;22.00;32.60;;;;;;6171731;28;83401;-73
2021/12/28 04:20:48;;;;;;;22.00;13.60;;;22.00;32.60;;;;;;6159818;27;83547;-74
2021/12/28 04:23:48;;;;;;;20.02;13.27;;;22.00;32.60;;;;;;6155647;28;86164;-73
2021/12/28 04:26:49;;;;;;;20.25;13.40;;;22.00;32.50;;;;;;6156548;28;82924;-72
2021/12/28 04:29:49;;;;;;;20.95;13.18;;;22.10;32.60;;;;;;6165450;28;82947;-74
2021/12/28 04:32:50;;;;;;;20.50;13.30;;;22.10;32.40;;;;;;6156080;27;82916;-71
2021/12/28 04:35:50;;;;;;;18.63;13.10;;;22.10;32.30;;;;;;6130313;28;84939;-72
2021/12/28 04:38:51;;;;;;;19.52;13.25;;;22.10;31.90;;;;;;6172263;28;82949;-73
2021/12/28 04:41:51;;;;;;;18.80;12.35;;;22.10;31.90;;;;;;6172506;28;83323;-74
2021/12/28 04:44:52;;;;;;;19.05;12.50;;;22.10;31.70;;;;;;6166578;28;83293;-74
2021/12/28 04:47:52;;;;;;;19.88;13.02;;;22.20;31.80;;;;;;6173564;28;83695;-75
2021/12/28 04:50:53;;;;;;;19.02;13.40;;;22.20;31.40;;;;;;6158701;28;83598;-75
2021/12/28 04:53:55;;;;;;;18.90;12.20;;;22.20;31.40;;;;;;6156811;28;83283;-75
2021/12/28 04:56:55;;;;;;;18.05;12.40;;;22.20;31.50;;;;;;6155471;28;87544;-74
2021/12/28 04:59:56;;;;;;;18.13;11.88;;;22.20;31.40;;;;;;6170321;28;84849;-69
2021/12/28 05:02:57;;;;;;;16.75;11.88;;;22.20;31.30;;;;;;6174430;28;83512;-69
2021/12/28 05:05:57;;;;;;;17.27;12.50;;;22.30;31.30;;;;;;6146084;28;85010;-69
2021/12/28 05:08:58;;;;;;;19.55;12.38;;;22.30;31.40;;;;;;6164589;28;83069;-69
2021/12/28 05:11:58;;;;;;;17.23;11.43;;;22.30;31.60;;;;;;6158678;28;82803;-70
2021/12/28 05:15:00;;;;;;;17.85;11.50;;;22.30;31.60;;;;;;6157730;28;83546;-68
2021/12/28 05:18:00;;;;;;;17.85;11.85;;;22.30;31.90;;;;;;6180251;28;84762;-68
2021/12/28 05:21:01;;;;;;;14.98;10.73;;;22.30;31.80;;;;;;6157441;28;83050;-67
2021/12/28 05:24:01;;;;;;;15.85;10.55;;;22.30;31.90;;;;;;6154794;28;83645;-68
2021/12/28 05:27:02;;;;;;;16.73;12.02;;;22.40;32.00;;;;;;6155208;28;82976;-71
2021/12/28 05:30:02;;;;;;;14.43;10.27;;;22.40;32.30;;;;;;6152336;28;83985;-69
2021/12/28 05:33:03;;;;;;;14.70;10.18;;;22.40;33.70;;;;;;6154079;28;83541;-67
2021/12/28 05:36:04;;;;;;;10.98;8.13;;;22.40;35.10;;;;;;6154762;28;83438;-68
2021/12/28 05:39:04;;;;;;;9.52;6.88;;;22.40;36.50;;;;;;6145246;28;82709;-68
2021/12/28 05:42:05;;;;;;;11.13;7.75;;;22.40;37.60;;;;;;6142918;28;80659;-69
2021/12/28 05:45:05;;;;;;;9.57;6.43;;;22.30;37.80;;;;;;6153929;28;80917;-70
2021/12/28 05:48:06;;;;;;;9.65;6.30;;;22.30;38.50;;;;;;6158177;28;80536;-72
2021/12/28 05:51:06;;;;;;;9.13;6.55;;;22.30;38.80;;;;;;6157332;28;82133;-74
2021/12/28 05:54:07;;;;;;;8.60;6.00;;;22.30;39.20;;;;;;6157941;28;80404;-71
2021/12/28 05:57:07;;;;;;;11.95;6.95;;;22.30;39.70;;;;;;6158360;28;80558;-70
2021/12/28 06:00:08;;;;;;;7.65;6.10;;;22.30;40.20;;;;;;6153693;28;80418;-69
2021/12/28 06:03:08;;;;;;;38.63;19.65;;;22.30;40.30;;;;;;6161086;28;80885;-70
2021/12/28 06:06:09;;;;;;;122.50;56.33;;;22.40;40.60;;;;;;6153861;28;83198;-70
2021/12/28 06:09:09;;;;;;;183.57;83.90;;;22.30;41.00;;;;;;6154003;28;83175;-68
2021/12/28 06:12:10;;;;;;;185.75;90.68;;;22.30;41.10;;;;;;6154369;28;83091;-68
2021/12/28 06:15:10;;;;;;;136.68;67.18;;;22.30;41.50;;;;;;6155592;28;83122;-70
2021/12/28 06:18:11;;;;;;;141.52;68.47;;;22.30;41.50;;;;;;6152692;28;84582;-69
2021/12/28 06:21:11;;;;;;;203.32;97.60;;;22.20;42.00;;;;;;6155468;28;83889;-66
2021/12/28 06:24:12;;;;;;;174.73;85.15;;;22.20;42.20;;;;;;6153149;28;84717;-67
2021/12/28 06:27:12;;;;;;;137.60;68.53;;;22.20;42.10;;;;;;6147401;28;83171;-67
2021/12/28 06:30:13;;;;;;;114.38;56.50;;;22.20;42.10;;;;;;6150865;28;83303;-67
2021/12/28 06:33:13;;;;;;;95.93;44.42;;;22.20;41.80;;;;;;6153538;28;83743;-67
2021/12/28 06:36:14;;;;;;;84.85;40.53;;;22.20;41.90;;;;;;6153435;28;83179;-66
2021/12/28 06:39:14;;;;;;;63.65;31.38;;;22.20;41.50;;;;;;6146395;28;82915;-66
2021/12/28 06:42:15;;;;;;;51.63;27.90;;;22.10;42.30;;;;;;6158992;28;82993;-67
2021/12/28 06:45:15;;;;;;;50.65;22.63;;;22.10;41.70;;;;;;6152425;28;83188;-67
2021/12/28 06:48:16;;;;;;;36.97;20.75;;;22.10;41.40;;;;;;6166745;28;83255;-67
2021/12/28 06:51:16;;;;;;;35.92;18.52;;;22.10;42.00;;;;;;6159257;28;83348;-70
2021/12/28 06:54:17;;;;;;;34.67;18.08;;;22.10;42.40;;;;;;6159151;28;83970;-69
2021/12/28 06:57:19;;;;;;;42.03;16.00;;;22.10;42.80;;;;;;6158124;28;83760;-68
2021/12/28 07:00:20;;;;;;;31.80;16.40;;;22.00;42.60;;;;;;6159678;27;83635;-66
2021/12/28 07:03:20;;;;;;;24.90;14.13;;;21.90;42.80;;;;;;6157038;28;83203;-68
2021/12/28 07:06:23;;;;;;;22.38;12.65;;;21.90;43.30;;;;;;6145901;28;84316;-68
2021/12/28 07:09:23;;;;;;;20.52;11.80;;;21.90;43.60;;;;;;6160080;28;82917;-69
2021/12/28 07:12:24;;;;;;;19.83;11.77;;;21.90;43.70;;;;;;6163592;28;82925;-69
2021/12/28 07:15:24;;;;;;;19.73;11.10;;;21.90;43.70;;;;;;6156851;28;83026;-69
2021/12/28 07:18:25;;;;;;;20.15;10.98;;;21.90;43.50;;;;;;6155205;28;84004;-69
2021/12/28 07:21:25;;;;;;;18.35;11.23;;;21.80;44.40;;;;;;6158864;28;83214;-70
2021/12/28 07:24:26;;;;;;;18.02;10.20;;;21.80;43.60;;;;;;6157585;28;83343;-67
2021/12/28 07:27:27;;;;;;;17.25;9.93;;;21.90;44.00;;;;;;6156260;28;83075;-69
2021/12/28 07:30:27;;;;;;;14.77;8.30;;;21.90;44.20;;;;;;6158454;28;81905;-69
2021/12/28 07:33:28;;;;;;;16.52;8.38;;;21.80;44.20;;;;;;6158526;28;80576;-70
2021/12/28 07:36:28;;;;;;;14.30;9.10;;;21.80;44.40;;;;;;6161104;28;80483;-69
2021/12/28 07:39:29;;;;;;;13.75;7.47;;;21.80;44.50;;;;;;6160530;28;84113;-70
2021/12/28 07:42:29;;;;;;;12.82;8.35;;;21.80;44.30;;;;;;6158580;28;81646;-70
2021/12/28 07:45:30;;;;;;;14.93;8.80;;;21.80;44.30;;;;;;6144350;28;80805;-69
2021/12/28 07:48:31;;;;;;;13.57;8.55;;;21.80;44.00;;;;;;6156339;28;81027;-70
2021/12/28 07:51:31;;;;;;;16.77;9.75;;;21.80;43.70;;;;;;6157061;28;80575;-70
2021/12/28 07:54:32;;;;;;;13.38;8.50;;;21.70;43.70;;;;;;6159561;28;83597;-69
2021/12/28 07:57:34;;;;;;;15.18;9.45;;;21.70;43.40;;;;;;6159453;28;80595;-72
2021/12/28 08:00:34;;;;;;;15.27;9.90;;;21.70;43.20;;;;;;6163827;28;82209;-74
2021/12/28 08:03:35;;;;;;;17.73;8.75;;;21.60;43.20;;;;;;6158445;28;80916;-67
2021/12/28 08:06:35;;;;;;;14.95;8.43;;;21.60;43.50;;;;;;6159024;28;80472;-69
2021/12/28 08:09:36;;;;;;;11.57;8.35;;;21.60;43.60;;;;;;6158076;28;80613;-68
2021/12/28 08:16:03;;;;;;;11.63;7.45;;;21.60;43.70;;;;;;6151913;28;80728;-69
2021/12/28 08:19:06;;;;;;;12.27;7.05;;;21.60;43.90;;;;;;6152590;28;84711;-73
2021/12/28 08:22:07;;;;;;;11.27;7.72;;;21.60;43.70;;;;;;6155604;28;82851;-70
2021/12/28 08:25:07;;;;;;;11.35;7.75;;;21.60;43.40;;;;;;6156912;28;80582;-68
2021/12/28 08:28:08;;;;;;;14.40;8.05;;;21.60;43.30;;;;;;6151212;28;81388;-71
2021/12/28 08:31:08;;;;;;;11.75;6.90;;;21.60;43.30;;;;;;6152521;28;80727;-68
2021/12/28 08:34:09;;;;;;;13.48;7.75;;;21.60;42.80;;;;;;6149926;28;80480;-71
2021/12/28 08:37:09;;;;;;;13.38;7.40;;;21.60;42.60;;;;;;6157308;28;81209;-69
2021/12/28 08:40:10;;;;;;;10.07;6.90;;;21.60;42.40;;;;;;6155209;28;81857;-70
2021/12/28 08:43:10;;;;;;;10.05;7.00;;;21.70;42.50;;;;;;6154514;28;81396;-68
2021/12/28 08:46:11;;;;;;;11.55;7.10;;;21.70;42.70;;;;;;6159276;28;80310;-68
2021/12/28 08:49:11;;;;;;;10.68;6.97;;;21.70;42.20;;;;;;6159122;28;80402;-67
2021/12/28 08:52:12;;;;;;;7.93;5.88;;;21.80;42.50;;;;;;6160503;28;80968;-68
2021/12/28 08:55:13;;;;;;;15.07;7.32;;;21.80;42.40;;;;;;6153828;28;81501;-68
2021/12/28 08:58:15;;;;;;;11.65;7.32;;;21.90;42.70;;;;;;6146745;28;83127;-69
2021/12/28 09:01:15;;;;;;;8.98;6.35;;;21.90;42.20;;;;;;6155147;28;80881;-68
2021/12/28 09:04:16;;;;;;;14.23;7.00;;;22.00;42.00;;;;;;6154235;28;80527;-68
2021/12/28 09:07:16;;;;;;;9.93;6.63;;;22.00;42.10;;;;;;6164533;28;83685;-67
2021/12/28 09:10:17;;;;;;;8.68;6.72;;;22.00;41.90;;;;;;6157415;28;80653;-68
2021/12/28 09:13:18;;;;;;;10.27;6.47;;;22.10;41.90;;;;;;6157374;28;80817;-67
2021/12/28 09:16:19;;;;;;;10.05;6.53;;;22.10;41.80;;;;;;6158086;28;80242;-68
2021/12/28 09:19:20;;;;;;;10.00;6.57;;;22.10;41.80;;;;;;6155850;28;81146;-68
2021/12/28 09:22:20;;;;;;;10.23;7.35;;;22.20;42.00;;;;;;6155686;28;80689;-69
2021/12/28 09:25:21;;;;;;;11.02;7.07;;;22.20;41.70;;;;;;6153375;28;81005;-72
2021/12/28 09:28:21;;;;;;;12.80;7.55;;;22.20;41.70;;;;;;6154729;28;80418;-71
2021/12/28 09:31:22;;;;;;;11.43;7.13;;;22.30;41.50;;;;;;6158678;28;80480;-70
2021/12/28 09:34:22;;;;;;;9.77;6.93;;;22.30;41.90;;;;;;6160002;28;80703;-70
2021/12/28 09:37:23;;;;;;;10.52;7.22;;;22.30;41.70;;;;;;6159793;28;80568;-71
2021/12/28 09:40:23;;;;;;;12.50;7.10;;;22.40;41.80;;;;;;6155411;28;81257;-69
2021/12/28 09:43:24;;;;;;;8.77;6.00;;;22.40;42.10;;;;;;6156014;28;80394;-69
2021/12/28 09:46:24;;;;;;;9.93;6.72;;;22.40;41.90;;;;;;6155488;28;80420;-72
2021/12/28 09:49:26;;;;;;;11.38;7.65;;;22.40;41.80;;;;;;6157215;28;80943;-69
2021/12/28 09:52:27;;;;;;;10.90;7.13;;;22.50;42.00;;;;;;6153033;28;81487;-66
2021/12/28 09:55:27;;;;;;;9.80;6.78;;;22.50;42.20;;;;;;6157793;28;80556;-66
2021/12/28 09:58:28;;;;;;;11.95;6.90;;;22.50;41.90;;;;;;6168799;28;81050;-67
2021/12/28 10:01:28;;;;;;;8.65;6.22;;;22.50;42.30;;;;;;6162377;28;80246;-67
2021/12/28 10:04:29;;;;;;;9.77;6.45;;;22.50;42.50;;;;;;6159836;28;81231;-66
2021/12/28 10:07:29;;;;;;;8.82;5.80;;;22.50;42.10;;;;;;6162364;28;81772;-66
2021/12/28 10:10:30;;;;;;;7.32;5.65;;;22.50;42.30;;;;;;6162257;28;80447;-68
2021/12/28 10:13:30;;;;;;;9.00;6.57;;;22.50;42.60;;;;;;6159764;28;81057;-68
2021/12/28 10:16:31;;;;;;;9.27;6.00;;;22.40;42.80;;;;;;6202599;28;84077;-63
2021/12/28 10:19:31;;;;;;;11.48;6.25;;;22.40;43.00;;;;;;6170599;28;80254;-64
2021/12/28 10:22:32;;;;;;;9.15;6.18;;;22.50;43.20;;;;;;6168677;28;80678;-63
2021/12/28 10:25:33;;;;;;;9.60;5.75;;;22.40;43.10;;;;;;6165140;28;82086;-63
2021/12/28 10:28:33;;;;;;;8.23;5.53;;;22.50;43.40;;;;;;6204593;28;80783;-63
2021/12/28 10:31:34;;;;;;;7.82;6.05;;;22.60;42.80;;;;;;6193435;28;81684;-63
2021/12/28 10:34:34;;;;;;;7.55;5.10;;;22.60;43.10;;;;;;6165149;28;80123;-62
2021/12/28 10:37:35;;;;;;;7.78;6.03;;;22.80;42.90;;;;;;6162893;28;81372;-63
2021/12/28 10:40:35;;;;;;;8.05;5.53;;;22.90;42.60;;;;;;6161045;28;80344;-65
2021/12/28 10:43:36;;;;;;;8.02;5.38;;;23.00;42.50;;;;;;6162025;28;80527;-64
2021/12/28 10:46:36;;;;;;;7.80;5.55;;;23.10;42.20;;;;;;6158902;28;81845;-63
2021/12/28 10:49:37;;;;;;;8.73;5.55;;;23.10;42.40;;;;;;6172808;28;80314;-64
2021/12/28 10:52:43;;;;;;;8.75;5.65;;;23.10;42.50;;;;;;6164314;28;80953;-64
2021/12/28 10:55:44;;;;;;;8.35;5.60;;;23.20;42.40;;;;;;6167179;28;81448;-63
2021/12/28 10:58:44;;;;;;;9.80;5.32;;;23.30;42.60;;;;;;6160302;28;80234;-63
2021/12/28 11:01:45;;;;;;;11.48;6.70;;;23.30;42.30;;;;;;6158414;28;80947;-69
2021/12/28 11:04:45;;;;;;;16.40;8.10;;;23.30;42.60;;;;;;6165344;28;81847;-68
2021/12/28 11:07:46;;;;;;;18.83;9.40;;;23.40;43.50;;;;;;6161086;28;80614;-67
2021/12/28 11:10:46;;;;;;;20.85;10.45;;;23.50;44.50;;;;;;6160878;28;80640;-68
2021/12/28 11:13:47;;;;;;;17.70;8.82;;;23.60;44.90;;;;;;6158247;28;83007;-73
2021/12/28 11:16:47;;;;;;;19.92;9.82;;;23.60;44.80;;;;;;6160680;28;83022;-71
2021/12/28 11:19:51;;;;;;;16.05;8.00;;;23.70;44.70;;;;;;6168993;28;81481;-67
2021/12/28 11:22:51;;;;;;;22.85;8.95;;;23.70;45.00;;;;;;6159408;28;81873;-70
2021/12/28 11:25:52;;;;;;;20.52;9.90;;;23.70;45.10;;;;;;6156558;28;81553;-68
2021/12/28 11:28:52;;;;;;;16.85;8.63;;;23.70;45.10;;;;;;6164597;28;80272;-70
2021/12/28 11:31:53;;;;;;;20.02;9.07;;;23.70;44.40;;;;;;6160506;28;80193;-69
2021/12/28 11:34:53;;;;;;;18.08;9.25;;;23.70;44.70;;;;;;6161435;28;80376;-69
2021/12/28 11:37:54;;;;;;;18.73;9.95;;;23.70;44.60;;;;;;6160902;28;80383;-69
2021/12/28 11:40:54;;;;;;;18.65;9.60;;;23.70;44.50;;;;;;6161131;28;80459;-68
2021/12/28 11:43:55;;;;;;;16.58;8.75;;;23.80;44.60;;;;;;6159576;28;80463;-68
2021/12/28 11:46:55;;;;;;;14.68;8.85;;;23.70;44.80;;;;;;6160840;28;80429;-72
2021/12/28 11:49:58;;;;;;;15.35;8.70;;;23.70;44.50;;;;;;6160929;28;81105;-68
2021/12/28 11:52:59;;;;;;;16.10;8.80;;;23.70;44.20;;;;;;6153288;28;81474;-71
2021/12/28 11:55:59;;;;;;;15.38;8.60;;;23.70;43.90;;;;;;6163593;28;81150;-69
2021/12/28 11:59:00;;;;;;;18.60;9.00;;;23.70;44.10;;;;;;6155300;28;80929;-70
2021/12/28 12:02:00;;;;;;;14.02;8.48;;;23.70;43.60;;;;;;6158103;28;80023;-70
2021/12/28 12:05:01;;;;;;;13.65;8.23;;;23.70;43.20;;;;;;6155664;28;80403;-71
2021/12/28 12:08:01;;;;;;;15.07;8.75;;;23.70;43.00;;;;;;6153686;28;80441;-70
2021/12/28 12:11:02;;;;;;;13.07;8.32;;;23.80;43.20;;;;;;6156082;28;80358;-71
2021/12/28 12:14:02;;;;;;;12.98;8.23;;;23.80;43.10;;;;;;6152838;28;80337;-69
2021/12/28 12:17:03;;;;;;;13.50;8.32;;;23.80;42.80;;;;;;6156298;28;80199;-71
2021/12/28 12:20:03;;;;;;;11.50;7.68;;;23.90;42.80;;;;;;6160096;28;81477;-72
2021/12/28 12:23:04;;;;;;;11.80;6.93;;;23.90;42.90;;;;;;6159562;28;80416;-72
2021/12/28 12:26:05;;;;;;;11.07;7.10;;;23.90;42.50;;;;;;6183041;28;80655;-71
2021/12/28 12:29:06;;;;;;;12.82;8.23;;;23.90;42.40;;;;;;6147695;28;80881;-72
2021/12/28 12:32:07;;;;;;;9.50;6.80;;;23.90;42.30;;;;;;6153423;28;82217;-72
2021/12/28 12:35:07;;;;;;;10.77;7.40;;;23.90;42.30;;;;;;6151217;28;80053;-73
2021/12/28 12:38:08;;;;;;;9.90;7.07;;;23.90;42.30;;;;;;6158585;28;80791;-73
2021/12/28 12:41:08;;;;;;;12.57;7.50;;;23.80;42.20;;;;;;6171281;28;80611;-73
2021/12/28 12:44:09;;;;;;;11.88;7.47;;;23.70;42.50;;;;;;6158066;28;86899;-73
2021/12/28 12:47:10;;;;;;;10.80;7.90;;;23.70;42.50;;;;;;6157753;28;83393;-72
2021/12/28 12:50:10;;;;;;;13.35;7.10;;;23.70;42.40;;;;;;6147648;28;81928;-73
2021/12/28 12:53:11;;;;;;;10.45;6.75;;;23.70;42.40;;;;;;6167992;28;80774;-73
2021/12/28 12:56:11;;;;;;;10.65;7.10;;;23.60;42.40;;;;;;6150607;28;80634;-72
2021/12/28 12:59:12;;;;;;;11.75;7.50;;;23.70;42.50;;;;;;6159600;28;80466;-70
2021/12/28 13:02:12;;;;;;;11.18;6.85;;;23.70;42.70;;;;;;6160610;28;80680;-68
2021/12/28 13:05:13;;;;;;;10.10;6.70;;;23.70;42.90;;;;;;6158646;28;80754;-68
2021/12/28 13:08:14;;;;;;;11.65;7.50;;;23.60;43.10;;;;;;6154259;28;80447;-68
2021/12/28 13:11:14;;;;;;;11.23;7.35;;;23.60;43.10;;;;;;6150798;28;80174;-71
2021/12/28 13:14:15;;;;;;;9.20;6.53;;;23.60;43.30;;;;;;6151617;28;80476;-70
2021/12/28 13:17:17;;;;;;;9.45;6.38;;;23.60;43.60;;;;;;6157222;28;80629;-70
2021/12/28 13:20:17;;;;;;;11.10;7.68;;;23.50;43.60;;;;;;6146733;28;81001;-68
2021/12/28 13:23:18;;;;;;;12.85;8.20;;;23.50;43.30;;;;;;6152793;28;80583;-68
2021/12/28 13:26:19;;;;;;;10.65;7.32;;;23.50;42.80;;;;;;6153933;28;80239;-70
2021/12/28 13:29:19;;;;;;;12.63;8.05;;;23.60;42.60;;;;;;6154069;28;80614;-69
2021/12/28 13:32:20;;;;;;;9.90;6.80;;;23.50;42.30;;;;;;6150505;28;81583;-68
2021/12/28 13:35:20;;;;;;;11.82;7.65;;;23.50;42.50;;;;;;6154430;28;80752;-68
2021/12/28 13:38:21;;;;;;;12.75;7.43;;;23.40;42.30;;;;;;6158228;28;81910;-69
2021/12/28 13:41:21;;;;;;;11.77;7.40;;;23.40;42.30;;;;;;6156888;28;80441;-69
2021/12/28 13:44:22;;;;;;;10.30;6.78;;;23.30;42.40;;;;;;6158546;28;81231;-72
2021/12/28 13:47:23;;;;;;;11.27;7.90;;;23.30;42.60;;;;;;6156756;28;80438;-70
2021/12/28 13:50:23;;;;;;;11.95;7.15;;;23.20;42.60;;;;;;6158248;28;80773;-69
2021/12/28 13:53:24;;;;;;;10.05;7.13;;;23.20;42.50;;;;;;6162066;28;80426;-73
2021/12/28 13:56:26;;;;;;;11.57;7.70;;;23.20;42.60;;;;;;6160737;28;81347;-69
2021/12/28 13:59:27;;;;;;;11.90;7.68;;;23.20;42.60;;;;;;6163237;28;80393;-69
2021/12/28 14:02:27;;;;;;;9.65;6.00;;;23.10;42.70;;;;;;6162653;28;81525;-66
2021/12/28 14:05:28;;;;;;;10.13;6.95;;;23.10;43.20;;;;;;6163945;28;80992;-68
2021/12/28 14:08:28;;;;;;;10.65;6.88;;;23.10;43.20;;;;;;6163981;28;80377;-68
2021/12/28 14:11:29;;;;;;;9.73;6.75;;;23.00;42.80;;;;;;6164303;28;80361;-67
2021/12/28 14:14:35;;;;;;;10.20;6.35;;;23.00;43.50;;;;;;6164692;28;80241;-67
2021/12/28 14:17:37;;;;;;;12.82;7.07;;;23.00;43.50;;;;;;6156667;28;81594;-64
2021/12/28 14:20:38;;;;;;;8.95;6.57;;;22.90;43.60;;;;;;6159650;28;80740;-67
2021/12/28 14:23:38;;;;;;;11.65;6.80;;;22.90;43.60;;;;;;6145035;28;80484;-67
2021/12/28 14:26:41;;;;;;;10.07;6.28;;;22.90;44.00;;;;;;6164352;28;87634;-70
2021/12/28 14:29:42;;;;;;;9.35;6.63;;;22.80;43.80;;;;;;6158568;28;81735;-68
2021/12/28 14:32:42;;;;;;;10.40;6.45;;;22.80;44.20;;;;;;6157050;28;80716;-68
2021/12/28 14:35:43;;;;;;;9.98;5.88;;;22.80;44.20;;;;;;6152450;28;80366;-68
2021/12/28 14:38:44;;;;;;;9.63;6.10;;;22.80;44.40;;;;;;6160077;28;80299;-68
2021/12/28 14:41:44;;;;;;;11.02;7.57;;;22.70;44.30;;;;;;6155563;28;81377;-65
2021/12/28 14:44:45;;;;;;;10.45;5.95;;;22.60;44.40;;;;;;6150635;28;81518;-66
2021/12/28 14:47:45;;;;;;;7.65;5.28;;;22.70;44.90;;;;;;6166088;28;80341;-72
2021/12/28 14:50:45;;;;;;;8.73;5.63;;;22.70;45.00;;;;;;6161632;28;80872;-71
2021/12/28 14:53:46;;;;;;;7.43;5.80;;;22.70;45.30;;;;;;6143101;28;80667;-70
2021/12/28 14:56:46;;;;;;;8.82;5.80;;;22.60;45.40;;;;;;6150914;28;81174;-69
2021/12/28 14:59:47;;;;;;;8.93;5.95;;;22.60;45.40;;;;;;6162443;28;80885;-67
2021/12/28 15:02:47;;;;;;;8.60;6.05;;;22.60;45.60;;;;;;6161428;28;81948;-70
2021/12/28 15:05:54;;;;;;;7.03;5.10;;;22.60;45.80;;;;;;6160356;28;80556;-70
2021/12/28 15:08:55;;;;;;;8.60;5.68;;;22.60;45.70;;;;;;6163441;28;80649;-67
2021/12/28 15:11:55;;;;;;;8.20;5.38;;;22.60;45.90;;;;;;6163563;28;80882;-68
2021/12/28 15:14:56;;;;;;;9.18;5.97;;;22.60;45.90;;;;;;6172724;28;80676;-68
2021/12/28 15:17:56;;;;;;;11.50;6.60;;;22.50;45.50;;;;;;6161559;28;80621;-69
2021/12/28 15:20:57;;;;;;;21.58;8.35;;;22.50;45.50;;;;;;6161199;28;80503;-69
2021/12/28 15:23:57;;;;;;;36.47;12.68;;;22.50;45.70;;;;;;6164146;28;80494;-72
2021/12/28 15:26:58;;;;;;;35.70;12.65;;;22.50;45.90;;;;;;6159174;28;84496;-69
2021/12/28 15:30:03;;;;;;;35.53;12.25;;;22.50;45.80;;;;;;6158950;28;83752;-68